createdAt,value
2023-05-01T00:00:06.538Z,99513.47
2023-05-01T00:02:34.266Z,99502.16
2023-05-01T00:05:02.994Z,99499.56
2023-05-01T00:07:31.201Z,99497.94
2023-05-01T00:09:58.854Z,99502.34
2023-05-01T00:12:26.467Z,99501.06
2023-05-01T00:14:56.758Z,99507.56
2023-05-01T00:17:25.049Z,99509.97
2023-05-01T00:19:55.320Z,99508.47
2023-05-01T00:22:22.547Z,99503.50
2023-05-01T00:24:50.318Z,99504.75
2023-05-01T00:27:17.396Z,99505.53
2023-05-01T00:29:44.437Z,99501.97
2023-05-01T00:32:11.898Z,99495.16
2023-05-01T00:34:39.045Z,99488.91
2023-05-01T00:37:06.123Z,99492.34
2023-05-01T00:39:33.564Z,99493.97
2023-05-01T00:42:00.713Z,99498.03
2023-05-01T00:44:27.888Z,99500.59
2023-05-01T00:46:56.579Z,99499.72
2023-05-01T00:49:23.890Z,99499.03
2023-05-01T00:51:53.396Z,99506.47
2023-05-01T00:54:21.437Z,99504.16
2023-05-01T00:56:49.654Z,99506.78
2023-05-01T00:59:17.902Z,99507.66
2023-05-01T01:01:45.402Z,99507.28
2023-05-01T01:04:13.360Z,99505.63
2023-05-01T01:07:02.545Z,99504.53
2023-05-01T01:09:46.440Z,99509.28
2023-05-01T01:12:27.408Z,99507.09
2023-05-01T01:14:55.385Z,99507.03
2023-05-01T01:17:34.615Z,99507.19
2023-05-01T01:20:24.801Z,99503.53
2023-05-01T01:23:04.693Z,99493.13
2023-05-01T01:25:32.410Z,99497.47
2023-05-01T01:28:11.653Z,99497.63
2023-05-01T01:30:39.017Z,99495.22
2023-05-01T01:33:44.976Z,99489.84
2023-05-01T01:36:21.447Z,99484.53
2023-05-01T01:39:01.977Z,99491.41
2023-05-01T01:41:33.352Z,99482.28
2023-05-01T01:44:17.607Z,99486.53
2023-05-01T01:46:45.326Z,99486.38
2023-05-01T01:49:20.846Z,99488.16
2023-05-01T01:51:50.980Z,99485.91
2023-05-01T01:54:26.316Z,99489.56
2023-05-01T01:56:56.061Z,99484.59
2023-05-01T01:59:24.375Z,99493.28
2023-05-01T02:01:56.202Z,99483.56
2023-05-01T02:04:27.693Z,99493.81
2023-05-01T02:06:59.896Z,99485.84
2023-05-01T02:09:30.481Z,99489.78
2023-05-01T02:12:01.001Z,99493.03
2023-05-01T02:14:30.287Z,99484.06
2023-05-01T02:16:58.840Z,99486.72
2023-05-01T02:19:26.776Z,99480.44
2023-05-01T02:21:57.636Z,99487.41
2023-05-01T02:24:28.126Z,99483.13
2023-05-01T02:27:00.454Z,99479.41
2023-05-01T02:29:28.144Z,99481.78
2023-05-01T02:31:55.598Z,99478.56
2023-05-01T02:34:22.808Z,99482.72
2023-05-01T02:36:50.972Z,99474.03
2023-05-01T02:39:18.906Z,99487.25
2023-05-01T02:41:49.168Z,99483.69
2023-05-01T02:44:19.455Z,99486.06
2023-05-01T02:46:49.691Z,99491.88
2023-05-01T02:49:18.784Z,99490.16
2023-05-01T02:51:46.826Z,99486.25
2023-05-01T02:54:16.284Z,99485.56
2023-05-01T02:56:44.077Z,99490.31
2023-05-01T02:59:11.183Z,99492.28
2023-05-01T03:01:38.870Z,99499.97
2023-05-01T03:04:06.301Z,99503.97
2023-05-01T03:06:33.470Z,99503.97
2023-05-01T03:09:01.080Z,99500.88
2023-05-01T03:11:28.504Z,99509.00
2023-05-01T03:13:55.589Z,99504.66
2023-05-01T03:16:22.743Z,99507.25
2023-05-01T03:18:50.287Z,99503.38
2023-05-01T03:21:17.671Z,99507.13
2023-05-01T03:23:44.782Z,99504.50
2023-05-01T03:26:12.268Z,99501.34
2023-05-01T03:28:39.459Z,99508.84
2023-05-01T03:31:06.997Z,99509.19
2023-05-01T03:33:34.538Z,99506.28
2023-05-01T03:36:03.993Z,99504.84
2023-05-01T03:38:32.528Z,99507.66
2023-05-01T03:41:05.231Z,99506.00
2023-05-01T03:43:36.273Z,99508.25
2023-05-01T03:46:04.347Z,99512.16
2023-05-01T03:48:31.699Z,99507.03
2023-05-01T03:50:58.822Z,99505.78
2023-05-01T03:53:26.710Z,99499.44
2023-05-01T03:55:53.795Z,99504.38
2023-05-01T03:58:22.337Z,99501.50
2023-05-01T04:00:51.065Z,99509.59
2023-05-01T04:03:18.908Z,99504.38
2023-05-01T04:05:47.274Z,99502.41
2023-05-01T04:08:14.593Z,99503.94
2023-05-01T04:10:42.085Z,99508.53
2023-05-01T04:13:09.218Z,99507.41
2023-05-01T04:15:36.527Z,99509.00
2023-05-01T04:18:04.257Z,99501.84
2023-05-01T04:20:31.959Z,99503.34
2023-05-01T04:22:59.002Z,99508.72
2023-05-01T04:25:26.690Z,99510.28
2023-05-01T04:27:54.525Z,99507.16
2023-05-01T04:30:21.692Z,99520.16
2023-05-01T04:32:49.158Z,99517.34
2023-05-01T04:35:16.638Z,99517.81
2023-05-01T04:37:44.084Z,99523.59
2023-05-01T04:40:12.233Z,99509.28
2023-05-01T04:42:40.719Z,99521.03
2023-05-01T04:45:09.806Z,99518.38
2023-05-01T04:47:37.350Z,99524.75
2023-05-01T04:50:05.949Z,99524.59
2023-05-01T04:52:33.167Z,99519.16
2023-05-01T04:55:00.832Z,99528.41
2023-05-01T04:57:28.411Z,99521.81
2023-05-01T04:59:56.479Z,99519.22
2023-05-01T05:02:24.256Z,99525.31
2023-05-01T05:04:53.870Z,99522.78
2023-05-01T05:07:21.612Z,99527.41
2023-05-01T05:09:51.602Z,99528.19
2023-05-01T05:12:18.714Z,99519.56
2023-05-01T05:14:47.961Z,99522.69
2023-05-01T05:17:16.064Z,99523.94
2023-05-01T05:19:43.337Z,99526.19
2023-05-01T05:22:12.526Z,99528.66
2023-05-01T05:24:42.333Z,99533.56
2023-05-01T05:27:09.777Z,99530.06
2023-05-01T05:29:37.075Z,99536.69
2023-05-01T05:32:04.729Z,99529.69
2023-05-01T05:34:33.074Z,99532.12
2023-05-01T05:37:00.205Z,99538.84
2023-05-01T05:39:27.978Z,99537.56
2023-05-01T05:41:55.504Z,99540.81
2023-05-01T05:44:22.952Z,99542.28
2023-05-01T05:46:50.893Z,99547.97
2023-05-01T05:49:19.366Z,99539.16
2023-05-01T05:51:46.628Z,99543.66
2023-05-01T05:54:14.716Z,99551.63
2023-05-01T05:56:42.680Z,99547.00
2023-05-01T05:59:10.209Z,99542.47
2023-05-01T06:01:37.840Z,99543.84
2023-05-01T06:04:05.379Z,99545.22
2023-05-01T06:06:33.981Z,99541.53
2023-05-01T06:10:04.281Z,99549.47
2023-05-01T06:12:32.616Z,99543.47
2023-05-01T06:15:01.188Z,99558.34
2023-05-01T06:17:29.234Z,99552.13
2023-05-01T06:19:57.234Z,99558.69
2023-05-01T06:22:24.530Z,99563.69
2023-05-01T06:24:52.140Z,99560.72
2023-05-01T06:27:19.853Z,99559.66
2023-05-01T06:29:47.108Z,99561.81
2023-05-01T06:32:14.288Z,99567.56
2023-05-01T06:34:41.842Z,99562.44
2023-05-01T06:37:08.996Z,99560.00
2023-05-01T06:39:36.367Z,99565.72
2023-05-01T06:42:04.678Z,99565.78
2023-05-01T06:44:32.928Z,99562.59
2023-05-01T06:47:01.854Z,99568.38
2023-05-01T06:49:29.458Z,99564.78
2023-05-01T06:51:56.610Z,99550.47
2023-05-01T06:54:23.848Z,99556.19
2023-05-01T06:56:51.287Z,99565.41
2023-05-01T06:59:18.448Z,99562.44
2023-05-01T07:01:45.663Z,99557.59
2023-05-01T07:04:13.235Z,99559.47
2023-05-01T07:06:40.427Z,99564.22
2023-05-01T07:09:07.779Z,99565.72
2023-05-01T07:11:35.740Z,99562.19
2023-05-01T07:14:02.855Z,99560.22
2023-05-01T07:16:30.047Z,99568.41
2023-05-01T07:18:57.586Z,99557.38
2023-05-01T07:21:24.793Z,99562.69
2023-05-01T07:23:51.957Z,99565.81
2023-05-01T07:26:19.872Z,99556.44
2023-05-01T07:28:46.953Z,99568.81
2023-05-01T07:31:14.024Z,99564.56
2023-05-01T07:33:42.008Z,99570.91
2023-05-01T07:36:09.356Z,99570.31
2023-05-01T07:38:36.437Z,99570.16
2023-05-01T07:41:03.817Z,99567.34
2023-05-01T07:43:30.847Z,99571.12
2023-05-01T07:46:00.514Z,99567.75
2023-05-01T07:48:28.951Z,99573.47
2023-05-01T07:50:57.093Z,99572.78
2023-05-01T07:53:24.292Z,99573.38
2023-05-01T07:55:51.713Z,99580.53
2023-05-01T07:58:19.256Z,99578.06
2023-05-01T08:00:46.493Z,99573.09
2023-05-01T08:03:14.250Z,99574.19
2023-05-01T08:05:42.645Z,99579.00
2023-05-01T08:08:10.218Z,99572.31
2023-05-01T08:10:37.541Z,99566.06
2023-05-01T08:13:04.591Z,99563.84
2023-05-01T08:15:31.614Z,99569.34
2023-05-01T08:17:58.972Z,99575.28
2023-05-01T08:20:26.020Z,99580.88
2023-05-01T08:22:53.081Z,99577.59
2023-05-01T08:25:20.551Z,99585.09
2023-05-01T08:27:48.064Z,99579.13
2023-05-01T08:30:15.152Z,99575.72
2023-05-01T08:32:42.571Z,99573.72
2023-05-01T08:35:09.790Z,99573.63
2023-05-01T08:37:37.086Z,99573.22
2023-05-01T08:40:09.006Z,99570.41
2023-05-01T08:42:37.456Z,99570.78
2023-05-01T08:45:08.063Z,99573.69
2023-05-01T08:47:38.581Z,99577.91
2023-05-01T08:50:14.049Z,99560.63
2023-05-01T08:52:44.688Z,99567.84
2023-05-01T08:55:14.914Z,99570.97
2023-05-01T08:57:46.767Z,99572.34
2023-05-01T09:00:21.990Z,99577.88
2023-05-01T09:02:50.602Z,99573.81
2023-05-01T09:05:19.415Z,99576.69
2023-05-01T09:07:47.843Z,99577.59
2023-05-01T09:10:21.430Z,99578.25
2023-05-01T09:12:49.869Z,99570.06
2023-05-01T09:15:18.127Z,99573.56
2023-05-01T09:17:45.747Z,99563.50
2023-05-01T09:20:14.073Z,99564.84
2023-05-01T09:22:41.220Z,99559.19
2023-05-01T09:25:11.652Z,99560.56
2023-05-01T09:27:39.023Z,99571.00
2023-05-01T09:30:07.426Z,99562.19
2023-05-01T09:32:34.605Z,99561.16
2023-05-01T09:35:13.541Z,99561.66
2023-05-01T09:37:41.368Z,99558.22
2023-05-01T09:40:14.472Z,99565.94
2023-05-01T09:42:53.404Z,99563.31
2023-05-01T09:45:20.939Z,99561.34
2023-05-01T09:47:48.712Z,99555.84
2023-05-01T09:50:35.426Z,99540.69
2023-05-01T09:53:05.211Z,99548.12
2023-05-01T09:55:33.347Z,99539.03
2023-05-01T09:58:00.659Z,99543.66
2023-05-01T10:00:28.067Z,99541.25
2023-05-01T10:02:55.636Z,99540.12
2023-05-01T10:05:23.624Z,99537.06
2023-05-01T10:08:02.438Z,99529.84
2023-05-01T10:10:30.008Z,99534.34
2023-05-01T10:13:17.037Z,99530.59
2023-05-01T10:15:46.820Z,99525.50
2023-05-01T10:18:14.716Z,99524.56
2023-05-01T10:20:41.858Z,99525.91
2023-05-01T10:23:10.229Z,99515.97
2023-05-01T10:25:38.102Z,99526.50
2023-05-01T10:28:06.315Z,99511.06
2023-05-01T10:30:35.790Z,99511.56
2023-05-01T10:33:03.233Z,99521.34
2023-05-01T10:35:38.262Z,99522.53
2023-05-01T10:38:09.389Z,99512.53
2023-05-01T10:40:39.412Z,99514.47
2023-05-01T10:43:13.466Z,99504.28
2023-05-01T10:45:40.712Z,99504.50
2023-05-01T10:48:08.340Z,99513.16
2023-05-01T10:50:35.822Z,99502.78
2023-05-01T10:53:15.773Z,99510.91
2023-05-01T10:55:45.951Z,99500.09
2023-05-01T10:58:17.378Z,99503.41
2023-05-01T11:00:44.841Z,99497.06
2023-05-01T11:03:21.131Z,99502.00
2023-05-01T11:06:01.046Z,99501.91
2023-05-01T11:08:33.141Z,99503.22
2023-05-01T11:11:22.732Z,99493.78
2023-05-01T11:13:57.149Z,99498.84
2023-05-01T11:16:39.840Z,99490.53
2023-05-01T11:19:12.184Z,99484.34
2023-05-01T11:21:40.695Z,99480.19
2023-05-01T11:24:08.209Z,99480.22
2023-05-01T11:26:43.071Z,99470.13
2023-05-01T11:29:11.922Z,99476.41
2023-05-01T11:31:39.723Z,99470.94
2023-05-01T11:34:07.214Z,99457.22
2023-05-01T11:36:49.360Z,99463.50
2023-05-01T11:39:20.454Z,99460.78
2023-05-01T11:41:48.080Z,99467.13
2023-05-01T11:44:17.472Z,99470.00
2023-05-01T11:46:44.765Z,99461.13
2023-05-01T11:49:12.390Z,99456.38
2023-05-01T11:51:39.554Z,99452.19
2023-05-01T11:54:15.147Z,99453.38
2023-05-01T11:56:43.239Z,99451.03
2023-05-01T11:59:17.809Z,99449.88
2023-05-01T12:01:46.675Z,99443.94
2023-05-01T12:04:24.311Z,99451.19
2023-05-01T12:06:51.590Z,99440.34
2023-05-01T12:09:24.347Z,99438.69
2023-05-01T12:11:53.402Z,99443.38
2023-05-01T12:14:22.118Z,99434.50
2023-05-01T12:16:49.646Z,99439.41
2023-05-01T12:19:18.092Z,99430.44
2023-05-01T12:21:45.732Z,99441.22
2023-05-01T12:24:18.341Z,99438.81
2023-05-01T12:26:46.504Z,99433.00
2023-05-01T12:29:13.817Z,99432.31
2023-05-01T12:31:49.938Z,99418.66
2023-05-01T12:34:17.402Z,99424.88
2023-05-01T12:36:54.434Z,99420.03
2023-05-01T12:39:23.579Z,99419.84
2023-05-01T12:41:51.736Z,99412.03
2023-05-01T12:44:27.823Z,99417.09
2023-05-01T12:47:00.126Z,99409.38
2023-05-01T12:49:28.521Z,99404.28
2023-05-01T12:51:57.786Z,99409.03
2023-05-01T12:54:30.423Z,99402.56
2023-05-01T12:57:16.239Z,99395.34
2023-05-01T12:59:45.343Z,99400.25
2023-05-01T13:02:17.614Z,99387.75
2023-05-01T13:04:46.394Z,99382.53
2023-05-01T13:07:18.920Z,99381.06
2023-05-01T13:09:57.535Z,99380.47
2023-05-01T13:12:28.755Z,99378.59
2023-05-01T13:14:56.469Z,99381.09
2023-05-01T13:17:28.938Z,99380.47
2023-05-01T13:19:57.618Z,99384.06
2023-05-01T13:22:43.045Z,99374.78
2023-05-01T13:25:19.680Z,99366.69
2023-05-01T13:27:53.592Z,99367.22
2023-05-01T13:30:32.445Z,99367.94
2023-05-01T13:32:59.640Z,99359.22
2023-05-01T13:35:28.716Z,99356.47
2023-05-01T13:37:55.840Z,99351.16
2023-05-01T13:40:24.302Z,99352.63
2023-05-01T13:42:53.019Z,99357.50
2023-05-01T13:45:21.444Z,99360.41
2023-05-01T13:47:50.852Z,99346.94
2023-05-01T13:50:18.502Z,99348.28
2023-05-01T13:52:45.922Z,99337.47
2023-05-01T13:55:14.167Z,99336.41
2023-05-01T13:57:42.431Z,99337.47
2023-05-01T14:00:14.761Z,99335.25
2023-05-01T14:02:53.136Z,99337.81
2023-05-01T14:05:29.425Z,99330.37
2023-05-01T14:07:58.528Z,99322.81
2023-05-01T14:10:28.167Z,99329.53
2023-05-01T14:12:59.445Z,99329.87
2023-05-01T14:15:28.784Z,99331.53
2023-05-01T14:17:56.049Z,99328.41
2023-05-01T14:20:25.466Z,99320.19
2023-05-01T14:22:53.513Z,99311.94
2023-05-01T14:25:26.795Z,99311.62
2023-05-01T14:27:55.289Z,99311.72
2023-05-01T14:30:33.394Z,99307.59
2023-05-01T14:33:11.811Z,99311.75
2023-05-01T14:35:50.019Z,99311.44
2023-05-01T14:38:19.230Z,99306.97
2023-05-01T14:40:47.164Z,99301.28
2023-05-01T14:43:17.520Z,99292.91
2023-05-01T14:45:46.540Z,99285.03
2023-05-01T14:48:23.231Z,99292.50
2023-05-01T14:50:51.607Z,99287.75
2023-05-01T14:53:18.779Z,99287.09
2023-05-01T14:55:50.344Z,99285.34
2023-05-01T14:58:17.843Z,99279.25
2023-05-01T15:00:45.011Z,99279.97
2023-05-01T15:03:12.158Z,99291.13
2023-05-01T15:05:41.769Z,99284.56
2023-05-01T15:08:09.202Z,99287.25
2023-05-01T15:10:37.290Z,99282.72
2023-05-01T15:13:06.125Z,99291.00
2023-05-01T15:15:33.188Z,99280.28
2023-05-01T15:18:00.482Z,99281.75
2023-05-01T15:20:28.151Z,99277.19
2023-05-01T15:22:55.272Z,99280.34
2023-05-01T15:25:22.437Z,99277.50
2023-05-01T15:27:50.428Z,99272.09
2023-05-01T15:30:17.673Z,99277.78
2023-05-01T15:32:44.972Z,99271.00
2023-05-01T15:35:12.472Z,99262.78
2023-05-01T15:37:39.664Z,99266.16
2023-05-01T15:40:07.632Z,99267.19
2023-05-01T15:42:35.013Z,99265.69
2023-05-01T15:45:03.483Z,99273.22
2023-05-01T15:47:30.609Z,99271.00
2023-05-01T15:49:58.123Z,99273.69
2023-05-01T15:52:25.707Z,99275.31
2023-05-01T15:54:52.859Z,99269.87
2023-05-01T15:57:20.350Z,99271.56
2023-05-01T15:59:51.324Z,99273.66
2023-05-01T16:02:18.602Z,99264.53
2023-05-01T16:04:47.832Z,99269.09
2023-05-01T16:07:15.314Z,99269.47
2023-05-01T16:09:42.461Z,99275.84
2023-05-01T16:12:09.952Z,99272.78
2023-05-01T16:14:41.283Z,99268.41
2023-05-01T16:17:08.959Z,99270.34
2023-05-01T16:19:38.955Z,99268.66
2023-05-01T16:22:07.023Z,99259.53
2023-05-01T16:24:34.992Z,99265.19
2023-05-01T16:27:02.702Z,99261.16
2023-05-01T16:29:32.602Z,99249.72
2023-05-01T16:32:00.112Z,99252.28
2023-05-01T16:34:27.910Z,99248.38
2023-05-01T16:36:56.444Z,99253.44
2023-05-01T16:39:23.952Z,99246.97
2023-05-01T16:41:54.030Z,99254.00
2023-05-01T16:44:22.719Z,99248.38
2023-05-01T16:46:58.550Z,99250.34
2023-05-01T16:49:29.891Z,99251.38
2023-05-01T16:51:58.314Z,99257.75
2023-05-01T16:54:32.136Z,99263.94
2023-05-01T16:56:59.461Z,99255.50
2023-05-01T16:59:30.110Z,99247.78
2023-05-01T17:01:57.565Z,99262.84
2023-05-01T17:04:25.234Z,99257.06
2023-05-01T17:06:53.000Z,99255.81
2023-05-01T17:09:20.676Z,99252.41
2023-05-01T17:11:56.483Z,99259.41
2023-05-01T17:14:24.147Z,99258.84
2023-05-01T17:16:51.537Z,99256.56
2023-05-01T17:19:19.475Z,99255.44
2023-05-01T17:21:46.590Z,99259.94
2023-05-01T17:24:14.075Z,99253.84
2023-05-01T17:26:41.745Z,99241.03
2023-05-01T17:29:08.865Z,99250.00
2023-05-01T17:31:36.428Z,99250.78
2023-05-01T17:34:03.994Z,99242.00
2023-05-01T17:36:31.759Z,99239.81
2023-05-01T17:39:01.331Z,99242.44
2023-05-01T17:41:28.896Z,99248.88
2023-05-01T17:43:56.047Z,99245.78
2023-05-01T17:46:23.245Z,99243.41
2023-05-01T17:48:50.695Z,99252.03
2023-05-01T17:51:18.153Z,99242.34
2023-05-01T17:53:45.335Z,99255.53
2023-05-01T17:56:12.729Z,99251.94
2023-05-01T17:58:40.730Z,99251.34
2023-05-01T18:01:07.957Z,99257.91
2023-05-01T18:03:35.631Z,99261.44
2023-05-01T18:06:02.945Z,99255.88
2023-05-01T18:08:30.324Z,99247.00
2023-05-01T18:10:57.691Z,99261.47
2023-05-01T18:13:28.182Z,99250.84
2023-05-01T18:15:56.067Z,99253.28
2023-05-01T18:18:23.805Z,99250.16
2023-05-01T18:20:50.942Z,99252.44
2023-05-01T18:23:18.750Z,99253.66
2023-05-01T18:25:46.480Z,99256.72
2023-05-01T18:28:16.456Z,99251.38
2023-05-01T18:30:44.091Z,99251.72
2023-05-01T18:33:12.827Z,99259.84
2023-05-01T18:35:42.202Z,99261.78
2023-05-01T18:38:10.496Z,99263.34
2023-05-01T18:40:37.995Z,99254.16
2023-05-01T18:43:05.190Z,99262.28
2023-05-01T18:45:32.255Z,99266.34
2023-05-01T18:48:00.693Z,99269.03
2023-05-01T18:50:28.928Z,99268.81
2023-05-01T18:52:56.220Z,99276.34
2023-05-01T18:55:23.922Z,99275.00
2023-05-01T18:57:51.239Z,99276.59
2023-05-01T19:00:20.265Z,99279.22
2023-05-01T19:02:51.789Z,99279.91
2023-05-01T19:05:19.738Z,99280.38
2023-05-01T19:07:47.099Z,99284.50
2023-05-01T19:10:14.609Z,99279.66
2023-05-01T19:12:42.133Z,99283.31
2023-05-01T19:15:10.076Z,99283.66
2023-05-01T19:17:37.759Z,99281.50
2023-05-01T19:20:05.641Z,99283.91
2023-05-01T19:22:32.787Z,99275.06
2023-05-01T19:25:00.284Z,99276.50
2023-05-01T19:27:27.822Z,99274.97
2023-05-01T19:29:54.974Z,99274.56
2023-05-01T19:32:23.216Z,99284.72
2023-05-01T19:34:50.506Z,99288.22
2023-05-01T19:37:17.895Z,99281.22
2023-05-01T19:39:45.808Z,99281.59
2023-05-01T19:42:13.694Z,99281.47
2023-05-01T19:44:40.712Z,99275.06
2023-05-01T19:47:08.014Z,99284.97
2023-05-01T19:49:35.200Z,99279.78
2023-05-01T19:52:02.450Z,99278.66
2023-05-01T19:54:29.900Z,99279.56
2023-05-01T19:56:57.092Z,99277.41
2023-05-01T19:59:24.340Z,99292.25
2023-05-01T20:01:52.021Z,99293.47
2023-05-01T20:04:19.590Z,99289.44
2023-05-01T20:06:46.974Z,99287.97
2023-05-01T20:09:14.106Z,99284.09
2023-05-01T20:11:41.473Z,99283.69
2023-05-01T20:14:08.492Z,99281.59
2023-05-01T20:16:36.086Z,99288.34
2023-05-01T20:19:03.691Z,99294.75
2023-05-01T20:21:31.496Z,99292.81
2023-05-01T20:23:58.655Z,99289.47
2023-05-01T20:26:26.221Z,99290.59
2023-05-01T20:28:53.664Z,99290.31
2023-05-01T20:31:21.395Z,99288.16
2023-05-01T20:33:48.939Z,99289.03
2023-05-01T20:36:17.430Z,99281.91
2023-05-01T20:38:46.260Z,99288.06
2023-05-01T20:41:14.554Z,99293.22
2023-05-01T20:43:41.667Z,99288.31
2023-05-01T20:46:08.862Z,99294.72
2023-05-01T20:48:36.358Z,99281.28
2023-05-01T20:51:03.513Z,99291.69
2023-05-01T20:53:31.108Z,99295.25
2023-05-01T20:55:58.633Z,99290.00
2023-05-01T20:58:25.808Z,99297.28
2023-05-01T21:00:56.395Z,99296.84
2023-05-01T21:03:23.795Z,99301.28
2023-05-01T21:05:50.952Z,99300.87
2023-05-01T21:08:18.123Z,99299.28
2023-05-01T21:10:45.582Z,99304.09
2023-05-01T21:13:12.869Z,99304.28
2023-05-01T21:15:43.040Z,99300.47
2023-05-01T21:18:12.677Z,99299.41
2023-05-01T21:20:40.747Z,99303.75
2023-05-01T21:23:08.007Z,99304.72
2023-05-01T21:25:35.350Z,99303.75
2023-05-01T21:28:03.679Z,99303.81
2023-05-01T21:30:35.153Z,99307.53
2023-05-01T21:33:06.289Z,99307.09
2023-05-01T21:35:33.590Z,99305.69
2023-05-01T21:38:00.791Z,99305.16
2023-05-01T21:40:28.263Z,99308.66
2023-05-01T21:42:56.294Z,99309.22
2023-05-01T21:45:24.569Z,99310.38
2023-05-01T21:47:52.126Z,99311.78
2023-05-01T21:50:21.220Z,99311.12
2023-05-01T21:52:49.769Z,99313.88
2023-05-01T21:55:26.275Z,99309.34
2023-05-01T21:57:53.459Z,99313.06
2023-05-01T22:00:21.212Z,99313.69
2023-05-01T22:02:49.841Z,99314.22
2023-05-01T22:05:18.890Z,99317.09
2023-05-01T22:07:47.320Z,99316.00
2023-05-01T22:10:18.622Z,99319.34
2023-05-01T22:12:46.826Z,99314.44
2023-05-01T22:15:15.572Z,99312.09
2023-05-01T22:17:42.878Z,99315.59
2023-05-01T22:20:10.623Z,99313.69
2023-05-01T22:22:39.388Z,99311.38
2023-05-01T22:25:07.406Z,99303.91
2023-05-01T22:27:34.913Z,99305.09
2023-05-01T22:30:03.773Z,99302.78
2023-05-01T22:32:31.180Z,99302.03
2023-05-01T22:34:58.303Z,99301.19
2023-05-01T22:37:25.936Z,99304.47
2023-05-01T22:39:53.749Z,99301.16
2023-05-01T22:42:21.326Z,99301.81
2023-05-01T22:44:49.028Z,99304.78
2023-05-01T22:47:16.234Z,99307.44
2023-05-01T22:49:43.323Z,99303.41
2023-05-01T22:52:10.787Z,99299.91
2023-05-01T22:54:37.901Z,99298.22
2023-05-01T22:57:04.979Z,99303.50
2023-05-01T22:59:32.489Z,99291.72
2023-05-01T23:02:03.002Z,99300.22
2023-05-01T23:04:30.821Z,99306.16
2023-05-01T23:06:58.546Z,99299.56
2023-05-01T23:09:26.426Z,99294.78
2023-05-01T23:11:53.673Z,99298.41
2023-05-01T23:14:21.076Z,99302.22
2023-05-01T23:16:48.272Z,99295.41
2023-05-01T23:19:27.335Z,99299.56
2023-05-01T23:22:09.771Z,99295.75
2023-05-01T23:24:48.159Z,99295.00
2023-05-01T23:27:20.058Z,99293.81
2023-05-01T23:29:58.871Z,99300.31
2023-05-01T23:32:29.404Z,99299.03
2023-05-01T23:35:11.702Z,99301.28
2023-05-01T23:37:38.985Z,99292.69
2023-05-01T23:40:07.112Z,99294.25
2023-05-01T23:42:35.474Z,99293.97
2023-05-01T23:45:03.033Z,99294.88
2023-05-01T23:47:30.234Z,99288.94
2023-05-01T23:49:57.643Z,99288.94
2023-05-01T23:52:25.341Z,99287.13
2023-05-01T23:54:52.793Z,99288.94
2023-05-01T23:57:19.838Z,99291.38
2023-05-01T23:59:47.202Z,99292.63
